sensor_id;sensor_type;location;lat;lon;timestamp;pressure;altitude;pressure_sealevel;temperature;humidity
43934;BME280;59081;42.706;23.306;2023-05-08T00:02:06;95184.44;;;12.58;62.22
43934;BME280;59081;42.706;23.306;2023-05-08T00:04:32;95409.16;;;14.11;62.12
43934;BME280;59081;42.706;23.306;2023-05-08T00:06:57;95268.06;;;12.93;62.91
43934;BME280;59081;42.706;23.306;2023-05-08T00:09:25;95404.47;;;13.99;63.18
43934;BME280;59081;42.706;23.306;2023-05-08T00:11:51;95290.00;;;13.31;62.94
43934;BME280;59081;42.706;23.306;2023-05-08T00:14:17;95420.75;;;14.19;62.46
43934;BME280;59081;42.706;23.306;2023-05-08T00:16:42;95291.56;;;13.32;62.81
43934;BME280;59081;42.706;23.306;2023-05-08T00:19:10;95260.72;;;13.21;62.55
43934;BME280;59081;42.706;23.306;2023-05-08T00:21:39;95256.19;;;13.36;62.30
43934;BME280;59081;42.706;23.306;2023-05-08T00:24:04;95228.78;;;12.98;62.05
43934;BME280;59081;42.706;23.306;2023-05-08T00:26:32;95286.03;;;13.32;62.47
43934;BME280;59081;42.706;23.306;2023-05-08T00:29:00;95320.88;;;13.30;62.65
43934;BME280;59081;42.706;23.306;2023-05-08T00:31:29;95354.97;;;13.48;63.05
43934;BME280;59081;42.706;23.306;2023-05-08T00:33:57;95293.53;;;13.10;62.48
43934;BME280;59081;42.706;23.306;2023-05-08T00:36:22;95250.69;;;12.93;62.51
43934;BME280;59081;42.706;23.306;2023-05-08T00:38:48;95257.50;;;13.01;62.73
43934;BME280;59081;42.706;23.306;2023-05-08T00:41:13;95304.22;;;13.20;63.38
43934;BME280;59081;42.706;23.306;2023-05-08T00:43:40;95205.09;;;12.53;62.77
43934;BME280;59081;42.706;23.306;2023-05-08T00:46:06;95233.13;;;12.86;62.73
43934;BME280;59081;42.706;23.306;2023-05-08T00:48:34;95285.06;;;13.26;62.47
43934;BME280;59081;42.706;23.306;2023-05-08T00:51:02;95290.00;;;13.31;62.14
43934;BME280;59081;42.706;23.306;2023-05-08T00:53:29;95246.72;;;12.94;62.45
43934;BME280;59081;42.706;23.306;2023-05-08T00:55:59;95194.91;;;12.63;62.61
43934;BME280;59081;42.706;23.306;2023-05-08T00:58:26;95233.78;;;12.90;62.87
43934;BME280;59081;42.706;23.306;2023-05-08T01:00:54;95344.16;;;13.63;64.11
43934;BME280;59081;42.706;23.306;2023-05-08T01:03:22;95315.41;;;13.39;65.89
43934;BME280;59081;42.706;23.306;2023-05-08T01:05:48;95404.72;;;13.83;67.10
43934;BME280;59081;42.706;23.306;2023-05-08T01:08:13;95310.41;;;13.24;67.68
43934;BME280;59081;42.706;23.306;2023-05-08T01:11:05;95426.47;;;13.72;70.09
43934;BME280;59081;42.706;23.306;2023-05-08T01:22:17;95296.94;;;12.92;69.73
43934;BME280;59081;42.706;23.306;2023-05-08T01:25:28;95432.66;;;13.76;70.79
43934;BME280;59081;42.706;23.306;2023-05-08T01:33:26;95256.34;;;12.67;70.22
43934;BME280;59081;42.706;23.306;2023-05-08T01:36:13;95298.03;;;12.95;68.93
43934;BME280;59081;42.706;23.306;2023-05-08T01:38:56;95430.66;;;13.76;69.91
43934;BME280;59081;42.706;23.306;2023-05-08T01:41:26;95222.91;;;12.18;69.35
43934;BME280;59081;42.706;23.306;2023-05-08T01:44:12;95332.34;;;12.84;69.64
43934;BME280;59081;42.706;23.306;2023-05-08T01:46:45;95262.84;;;12.39;69.50
43934;BME280;59081;42.706;23.306;2023-05-08T01:49:22;95252.03;;;12.44;69.17
43934;BME280;59081;42.706;23.306;2023-05-08T01:51:56;95211.97;;;12.27;68.29
43934;BME280;59081;42.706;23.306;2023-05-08T01:54:25;95237.00;;;12.45;67.93
43934;BME280;59081;42.706;23.306;2023-05-08T01:56:55;95345.09;;;13.04;68.08
43934;BME280;59081;42.706;23.306;2023-05-08T01:59:23;95253.41;;;12.27;67.70
43934;BME280;59081;42.706;23.306;2023-05-08T02:01:54;95438.00;;;13.48;67.67
43934;BME280;59081;42.706;23.306;2023-05-08T02:04:21;95259.31;;;12.38;67.96
43934;BME280;59081;42.706;23.306;2023-05-08T02:06:50;95275.41;;;12.52;68.48
43934;BME280;59081;42.706;23.306;2023-05-08T02:09:16;95360.34;;;13.08;68.86
43934;BME280;59081;42.706;23.306;2023-05-08T02:11:45;95426.94;;;13.48;69.52
43934;BME280;59081;42.706;23.306;2023-05-08T02:14:12;95328.09;;;12.93;69.54
43934;BME280;59081;42.706;23.306;2023-05-08T02:16:41;95421.41;;;13.48;69.92
43934;BME280;59081;42.706;23.306;2023-05-08T02:19:08;95255.00;;;12.37;69.95
43934;BME280;59081;42.706;23.306;2023-05-08T02:21:36;95214.97;;;12.20;69.79
43934;BME280;59081;42.706;23.306;2023-05-08T02:24:03;95385.53;;;13.23;70.13
43934;BME280;59081;42.706;23.306;2023-05-08T02:26:30;95244.34;;;12.27;69.54
43934;BME280;59081;42.706;23.306;2023-05-08T02:29:04;95175.09;;;11.74;69.66
43934;BME280;59081;42.706;23.306;2023-05-08T02:31:30;95280.34;;;12.23;70.13
43934;BME280;59081;42.706;23.306;2023-05-08T02:33:57;95275.28;;;12.22;70.24
43934;BME280;59081;42.706;23.306;2023-05-08T02:36:24;95280.03;;;12.21;70.67
43934;BME280;59081;42.706;23.306;2023-05-08T02:38:53;95255.44;;;12.01;70.69
43934;BME280;59081;42.706;23.306;2023-05-08T02:41:27;95313.88;;;12.47;70.90
43934;BME280;59081;42.706;23.306;2023-05-08T02:43:53;95298.66;;;12.30;70.74
43934;BME280;59081;42.706;23.306;2023-05-08T02:49:00;95300.13;;;12.22;71.15
43934;BME280;59081;42.706;23.306;2023-05-08T02:54:37;95366.47;;;12.56;72.37
43934;BME280;59081;42.706;23.306;2023-05-08T02:57:21;95279.06;;;11.64;72.92
43934;BME280;59081;42.706;23.306;2023-05-08T03:00:22;95359.03;;;12.06;73.53
43934;BME280;59081;42.706;23.306;2023-05-08T03:03:08;95333.28;;;11.96;73.91
43934;BME280;59081;42.706;23.306;2023-05-08T03:05:42;95350.28;;;12.07;74.14
43934;BME280;59081;42.706;23.306;2023-05-08T03:08:19;95414.00;;;12.51;74.10
43934;BME280;59081;42.706;23.306;2023-05-08T03:10:48;95306.78;;;11.86;73.76
43934;BME280;59081;42.706;23.306;2023-05-08T03:13:19;95313.19;;;11.83;74.05
43934;BME280;59081;42.706;23.306;2023-05-08T03:15:53;95452.00;;;12.72;74.38
43934;BME280;59081;42.706;23.306;2023-05-08T03:18:20;95261.97;;;11.57;73.71
43934;BME280;59081;42.706;23.306;2023-05-08T03:20:52;95442.91;;;12.84;73.47
43934;BME280;59081;42.706;23.306;2023-05-08T03:23:18;95438.59;;;12.83;73.55
43934;BME280;59081;42.706;23.306;2023-05-08T03:25:48;95445.03;;;12.80;73.30
43934;BME280;59081;42.706;23.306;2023-05-08T03:28:21;95341.34;;;12.03;73.80
43934;BME280;59081;42.706;23.306;2023-05-08T03:30:49;95325.66;;;12.00;73.61
43934;BME280;59081;42.706;23.306;2023-05-08T03:33:18;95313.19;;;11.96;73.69
43934;BME280;59081;42.706;23.306;2023-05-08T03:35:46;95267.38;;;11.73;73.75
43934;BME280;59081;42.706;23.306;2023-05-08T03:38:13;95197.72;;;11.18;73.70
43934;BME280;59081;42.706;23.306;2023-05-08T03:40:41;95361.00;;;12.05;74.43
43934;BME280;59081;42.706;23.306;2023-05-08T03:43:08;95270.34;;;11.66;74.44
43934;BME280;59081;42.706;23.306;2023-05-08T03:45:36;95334.03;;;12.22;73.84
43934;BME280;59081;42.706;23.306;2023-05-08T03:48:07;95357.44;;;12.43;73.44
43934;BME280;59081;42.706;23.306;2023-05-08T03:50:36;95332.81;;;12.36;73.64
43934;BME280;59081;42.706;23.306;2023-05-08T03:53:02;95449.63;;;13.09;73.42
43934;BME280;59081;42.706;23.306;2023-05-08T03:55:29;95408.22;;;12.71;73.85
43934;BME280;59081;42.706;23.306;2023-05-08T03:58:00;95191.69;;;11.36;73.08
43934;BME280;59081;42.706;23.306;2023-05-08T04:00:47;95276.53;;;11.95;72.74
43934;BME280;59081;42.706;23.306;2023-05-08T04:06:28;95323.44;;;11.95;74.47
43934;BME280;59081;42.706;23.306;2023-05-08T04:09:30;95442.69;;;12.92;73.33
43934;BME280;59081;42.706;23.306;2023-05-08T04:12:19;95338.31;;;12.36;71.77
43934;BME280;59081;42.706;23.306;2023-05-08T04:15:01;95343.88;;;12.23;71.38
43934;BME280;59081;42.706;23.306;2023-05-08T04:17:54;95471.19;;;13.14;71.06
43934;BME280;59081;42.706;23.306;2023-05-08T04:20:25;95344.09;;;12.29;71.92
43934;BME280;59081;42.706;23.306;2023-05-08T04:22:52;95331.69;;;12.33;72.06
43934;BME280;59081;42.706;23.306;2023-05-08T04:25:19;95386.81;;;12.62;72.40
43934;BME280;59081;42.706;23.306;2023-05-08T04:27:49;95363.38;;;12.54;72.81
43934;BME280;59081;42.706;23.306;2023-05-08T04:30:16;95406.34;;;12.80;72.62
43934;BME280;59081;42.706;23.306;2023-05-08T04:32:42;95245.75;;;11.84;72.01
43934;BME280;59081;42.706;23.306;2023-05-08T04:35:09;95240.00;;;11.91;71.34
43934;BME280;59081;42.706;23.306;2023-05-08T04:37:34;95479.69;;;13.54;70.61
43934;BME280;59081;42.706;23.306;2023-05-08T04:40:01;95475.25;;;13.56;70.05
43934;BME280;59081;42.706;23.306;2023-05-08T04:42:28;95290.25;;;12.46;69.85
43934;BME280;59081;42.706;23.306;2023-05-08T04:44:54;95283.69;;;12.52;70.00
43934;BME280;59081;42.706;23.306;2023-05-08T04:47:20;95355.53;;;12.87;69.32
43934;BME280;59081;42.706;23.306;2023-05-08T04:49:46;95444.38;;;13.58;69.24
43934;BME280;59081;42.706;23.306;2023-05-08T04:52:11;95471.16;;;13.83;68.82
43934;BME280;59081;42.706;23.306;2023-05-08T04:54:37;95321.09;;;13.01;68.42
43934;BME280;59081;42.706;23.306;2023-05-08T04:57:02;95243.91;;;12.50;68.14
43934;BME280;59081;42.706;23.306;2023-05-08T04:59:28;95466.50;;;14.02;68.13
43934;BME280;59081;42.706;23.306;2023-05-08T05:01:55;95468.81;;;14.03;67.72
43934;BME280;59081;42.706;23.306;2023-05-08T05:04:27;95248.56;;;12.75;66.90
43934;BME280;59081;42.706;23.306;2023-05-08T05:06:53;95354.66;;;13.46;66.87
43934;BME280;59081;42.706;23.306;2023-05-08T05:09:18;95378.91;;;13.64;66.34
43934;BME280;59081;42.706;23.306;2023-05-08T05:11:44;95382.69;;;13.79;65.76
43934;BME280;59081;42.706;23.306;2023-05-08T05:14:09;95375.47;;;13.82;65.30
43934;BME280;59081;42.706;23.306;2023-05-08T05:16:35;95399.56;;;14.03;64.98
43934;BME280;59081;42.706;23.306;2023-05-08T05:19:03;95273.66;;;13.24;65.03
43934;BME280;59081;42.706;23.306;2023-05-08T05:21:29;95381.88;;;14.01;64.22
43934;BME280;59081;42.706;23.306;2023-05-08T05:23:57;95455.50;;;14.42;64.57
43934;BME280;59081;42.706;23.306;2023-05-08T05:26:22;95287.50;;;13.55;64.00
43934;BME280;59081;42.706;23.306;2023-05-08T05:28:48;95342.59;;;13.93;63.87
43934;BME280;59081;42.706;23.306;2023-05-08T05:31:14;95289.81;;;13.56;63.77
43934;BME280;59081;42.706;23.306;2023-05-08T05:33:39;95372.56;;;14.16;64.24
43934;BME280;59081;42.706;23.306;2023-05-08T05:36:06;95364.31;;;14.35;63.60
43934;BME280;59081;42.706;23.306;2023-05-08T05:38:32;95216.63;;;13.48;63.05
43934;BME280;59081;42.706;23.306;2023-05-08T05:40:57;95407.41;;;14.76;62.66
43934;BME280;59081;42.706;23.306;2023-05-08T05:43:23;95391.84;;;14.69;62.18
43934;BME280;59081;42.706;23.306;2023-05-08T05:45:48;95373.34;;;14.75;62.03
43934;BME280;59081;42.706;23.306;2023-05-08T05:48:14;95342.41;;;14.77;61.04
43934;BME280;59081;42.706;23.306;2023-05-08T05:50:42;95329.00;;;14.84;60.47
43934;BME280;59081;42.706;23.306;2023-05-08T05:53:08;95398.66;;;15.41;59.33
43934;BME280;59081;42.706;23.306;2023-05-08T05:55:34;95218.66;;;14.24;59.53
43934;BME280;59081;42.706;23.306;2023-05-08T05:57:59;95357.38;;;15.16;59.82
43934;BME280;59081;42.706;23.306;2023-05-08T06:00:25;95292.03;;;14.87;59.32
43934;BME280;59081;42.706;23.306;2023-05-08T06:02:51;95268.31;;;14.68;59.58
43934;BME280;59081;42.706;23.306;2023-05-08T06:05:17;95433.38;;;15.82;58.73
43934;BME280;59081;42.706;23.306;2023-05-08T06:07:47;95386.53;;;15.57;59.20
43934;BME280;59081;42.706;23.306;2023-05-08T06:10:12;95270.47;;;14.82;59.22
43934;BME280;59081;42.706;23.306;2023-05-08T06:12:38;95311.09;;;15.31;58.54
43934;BME280;59081;42.706;23.306;2023-05-08T06:15:03;95323.47;;;15.21;59.20
43934;BME280;59081;42.706;23.306;2023-05-08T06:17:29;95388.81;;;15.68;59.77
43934;BME280;59081;42.706;23.306;2023-05-08T06:19:55;95346.44;;;15.58;58.90
43934;BME280;59081;42.706;23.306;2023-05-08T06:22:24;95422.66;;;16.17;58.35
43934;BME280;59081;42.706;23.306;2023-05-08T06:24:53;95209.78;;;14.66;58.66
43934;BME280;59081;42.706;23.306;2023-05-08T06:27:19;95282.59;;;15.12;59.22
43934;BME280;59081;42.706;23.306;2023-05-08T06:29:49;95436.44;;;16.02;59.27
43934;BME280;59081;42.706;23.306;2023-05-08T06:32:17;95434.69;;;16.14;58.78
43934;BME280;59081;42.706;23.306;2023-05-08T06:34:43;95343.00;;;15.63;58.36
43934;BME280;59081;42.706;23.306;2023-05-08T06:37:11;95305.84;;;15.42;57.93
43934;BME280;59081;42.706;23.306;2023-05-08T06:39:37;95436.19;;;16.33;58.50
43934;BME280;59081;42.706;23.306;2023-05-08T06:42:02;95273.63;;;15.36;57.78
43934;BME280;59081;42.706;23.306;2023-05-08T06:44:31;95238.66;;;15.29;56.84
43934;BME280;59081;42.706;23.306;2023-05-08T06:46:57;95273.34;;;15.85;56.23
43934;BME280;59081;42.706;23.306;2023-05-08T06:49:22;95286.81;;;15.77;56.58
43934;BME280;59081;42.706;23.306;2023-05-08T06:51:48;95367.38;;;16.19;57.15
43934;BME280;59081;42.706;23.306;2023-05-08T06:54:13;95278.47;;;15.77;56.98
43934;BME280;59081;42.706;23.306;2023-05-08T06:56:39;95355.97;;;16.17;56.83
43934;BME280;59081;42.706;23.306;2023-05-08T06:59:05;95220.69;;;15.48;56.46
43934;BME280;59081;42.706;23.306;2023-05-08T07:01:31;95286.41;;;16.02;55.89
43934;BME280;59081;42.706;23.306;2023-05-08T07:03:58;95339.03;;;16.39;55.75
43934;BME280;59081;42.706;23.306;2023-05-08T07:06:24;95289.50;;;15.95;55.87
43934;BME280;59081;42.706;23.306;2023-05-08T07:08:50;95401.69;;;16.82;55.99
43934;BME280;59081;42.706;23.306;2023-05-08T07:11:15;95399.50;;;16.86;55.20
43934;BME280;59081;42.706;23.306;2023-05-08T07:13:41;95310.69;;;16.50;54.73
43934;BME280;59081;42.706;23.306;2023-05-08T07:16:11;95442.06;;;17.49;53.98
43934;BME280;59081;42.706;23.306;2023-05-08T07:18:37;95382.66;;;17.14;54.15
43934;BME280;59081;42.706;23.306;2023-05-08T07:21:03;95329.44;;;16.97;53.73
43934;BME280;59081;42.706;23.306;2023-05-08T07:23:28;95393.00;;;17.52;52.73
43934;BME280;59081;42.706;23.306;2023-05-08T07:25:54;95393.78;;;17.52;53.04
43934;BME280;59081;42.706;23.306;2023-05-08T07:28:20;95395.00;;;17.51;53.15
43934;BME280;59081;42.706;23.306;2023-05-08T07:30:46;95362.38;;;17.52;52.48
43934;BME280;59081;42.706;23.306;2023-05-08T07:33:11;95317.72;;;17.31;51.71
43934;BME280;59081;42.706;23.306;2023-05-08T07:35:38;95291.38;;;17.18;52.00
43934;BME280;59081;42.706;23.306;2023-05-08T07:38:04;95399.44;;;18.11;51.62
43934;BME280;59081;42.706;23.306;2023-05-08T07:40:29;95436.72;;;18.28;51.93
43934;BME280;59081;42.706;23.306;2023-05-08T07:42:55;95263.16;;;17.25;51.23
43934;BME280;59081;42.706;23.306;2023-05-08T07:45:20;95450.00;;;18.63;50.95
43934;BME280;59081;42.706;23.306;2023-05-08T07:47:51;95342.03;;;18.04;50.75
43934;BME280;59081;42.706;23.306;2023-05-08T07:50:18;95377.88;;;18.26;49.80
43934;BME280;59081;42.706;23.306;2023-05-08T07:52:46;95337.34;;;17.66;50.27
43934;BME280;59081;42.706;23.306;2023-05-08T07:55:12;95329.47;;;17.80;50.07
43934;BME280;59081;42.706;23.306;2023-05-08T07:57:39;95455.78;;;18.94;49.20
43934;BME280;59081;42.706;23.306;2023-05-08T08:00:07;95278.50;;;18.08;48.63
43934;BME280;59081;42.706;23.306;2023-05-08T08:02:34;95398.31;;;19.02;49.47
43934;BME280;59081;42.706;23.306;2023-05-08T08:04:59;95313.38;;;18.54;48.71
43934;BME280;59081;42.706;23.306;2023-05-08T08:07:25;95335.53;;;18.42;49.35
43934;BME280;59081;42.706;23.306;2023-05-08T08:09:53;95415.09;;;18.88;50.46
43934;BME280;59081;42.706;23.306;2023-05-08T08:12:19;95455.34;;;19.16;50.28
43934;BME280;59081;42.706;23.306;2023-05-08T08:14:45;95334.00;;;18.41;50.82
43934;BME280;59081;42.706;23.306;2023-05-08T08:17:11;95455.19;;;18.70;51.05
43934;BME280;59081;42.706;23.306;2023-05-08T08:19:36;95348.97;;;18.59;50.01
43934;BME280;59081;42.706;23.306;2023-05-08T08:22:02;95304.41;;;18.29;51.10
43934;BME280;59081;42.706;23.306;2023-05-08T08:24:28;95279.91;;;18.19;50.69
43934;BME280;59081;42.706;23.306;2023-05-08T08:26:54;95437.41;;;19.43;50.18
43934;BME280;59081;42.706;23.306;2023-05-08T08:29:19;95340.31;;;19.12;49.22
43934;BME280;59081;42.706;23.306;2023-05-08T08:31:45;95375.75;;;19.46;49.40
43934;BME280;59081;42.706;23.306;2023-05-08T08:34:10;95313.19;;;19.38;48.61
43934;BME280;59081;42.706;23.306;2023-05-08T08:36:38;95351.69;;;19.75;48.02
43934;BME280;59081;42.706;23.306;2023-05-08T08:39:03;95329.84;;;19.73;48.05
43934;BME280;59081;42.706;23.306;2023-05-08T08:41:29;95304.25;;;19.55;48.78
43934;BME280;59081;42.706;23.306;2023-05-08T08:43:55;95360.34;;;20.03;48.24
43934;BME280;59081;42.706;23.306;2023-05-08T08:46:23;95308.06;;;19.83;48.20
43934;BME280;59081;42.706;23.306;2023-05-08T08:48:49;95397.09;;;20.47;47.70
43934;BME280;59081;42.706;23.306;2023-05-08T08:51:23;95306.75;;;19.78;48.53
43934;BME280;59081;42.706;23.306;2023-05-08T08:53:57;95391.78;;;20.49;48.03
43934;BME280;59081;42.706;23.306;2023-05-08T08:56:25;95308.81;;;19.84;48.62
43934;BME280;59081;42.706;23.306;2023-05-08T08:58:56;95303.19;;;20.09;48.08
43934;BME280;59081;42.706;23.306;2023-05-08T09:01:23;95394.00;;;20.77;48.17
43934;BME280;59081;42.706;23.306;2023-05-08T09:03:50;95288.97;;;20.13;48.37
43934;BME280;59081;42.706;23.306;2023-05-08T09:06:17;95268.44;;;19.85;48.30
43934;BME280;59081;42.706;23.306;2023-05-08T09:08:43;95206.38;;;19.49;48.63
43934;BME280;59081;42.706;23.306;2023-05-08T09:11:09;95244.53;;;19.84;48.82
43934;BME280;59081;42.706;23.306;2023-05-08T09:13:34;95374.41;;;20.77;48.56
43934;BME280;59081;42.706;23.306;2023-05-08T09:16:00;95297.00;;;20.31;48.83
43934;BME280;59081;42.706;23.306;2023-05-08T09:18:25;95264.25;;;19.74;49.92
43934;BME280;59081;42.706;23.306;2023-05-08T09:20:51;95364.00;;;20.40;50.17
43934;BME280;59081;42.706;23.306;2023-05-08T09:23:17;95334.75;;;20.15;50.33
43934;BME280;59081;42.706;23.306;2023-05-08T09:25:45;95164.47;;;18.92;51.13
43934;BME280;59081;42.706;23.306;2023-05-08T09:28:18;95317.16;;;20.09;51.08
43934;BME280;59081;42.706;23.306;2023-05-08T09:30:49;95219.19;;;19.61;50.80
43934;BME280;59081;42.706;23.306;2023-05-08T09:33:16;95286.94;;;20.08;50.37
43934;BME280;59081;42.706;23.306;2023-05-08T09:35:41;95262.69;;;19.99;50.33
43934;BME280;59081;42.706;23.306;2023-05-08T09:38:07;95323.56;;;20.41;50.32
43934;BME280;59081;42.706;23.306;2023-05-08T09:40:32;95372.66;;;20.85;49.83
43934;BME280;59081;42.706;23.306;2023-05-08T09:43:11;95228.13;;;19.65;49.74
43934;BME280;59081;42.706;23.306;2023-05-08T09:45:39;95348.59;;;20.62;49.49
43934;BME280;59081;42.706;23.306;2023-05-08T09:48:05;95216.59;;;19.84;49.11
43934;BME280;59081;42.706;23.306;2023-05-08T09:50:31;95301.72;;;20.51;49.33
43934;BME280;59081;42.706;23.306;2023-05-08T09:52:57;95324.03;;;20.82;48.64
43934;BME280;59081;42.706;23.306;2023-05-08T09:55:23;95365.22;;;21.19;48.82
43934;BME280;59081;42.706;23.306;2023-05-08T09:57:57;95242.66;;;20.43;48.80
43934;BME280;59081;42.706;23.306;2023-05-08T10:00:24;95292.81;;;21.01;48.02
43934;BME280;59081;42.706;23.306;2023-05-08T10:03:01;95218.63;;;20.68;48.23
43934;BME280;59081;42.706;23.306;2023-05-08T10:05:32;95289.13;;;21.26;47.81
43934;BME280;59081;42.706;23.306;2023-05-08T10:08:17;95264.75;;;20.84;47.96
43934;BME280;59081;42.706;23.306;2023-05-08T10:10:43;95284.41;;;21.01;48.95
43934;BME280;59081;42.706;23.306;2023-05-08T10:13:09;95274.03;;;21.18;48.23
43934;BME280;59081;42.706;23.306;2023-05-08T10:15:37;95280.25;;;21.50;47.96
43934;BME280;59081;42.706;23.306;2023-05-08T10:18:06;95245.06;;;21.27;48.06
43934;BME280;59081;42.706;23.306;2023-05-08T10:20:35;95259.88;;;21.44;47.70
43934;BME280;59081;42.706;23.306;2023-05-08T10:23:03;95324.66;;;21.74;47.62
43934;BME280;59081;42.706;23.306;2023-05-08T10:25:33;95354.28;;;22.03;48.00
43934;BME280;59081;42.706;23.306;2023-05-08T10:28:20;95334.41;;;22.17;47.40
43934;BME280;59081;42.706;23.306;2023-05-08T10:30:48;95236.94;;;21.40;47.26
43934;BME280;59081;42.706;23.306;2023-05-08T10:33:15;95327.47;;;21.85;47.82
43934;BME280;59081;42.706;23.306;2023-05-08T10:35:44;95326.97;;;21.92;47.93
43934;BME280;59081;42.706;23.306;2023-05-08T10:38:10;95189.03;;;21.27;47.61
43934;BME280;59081;42.706;23.306;2023-05-08T10:40:39;95281.59;;;22.21;46.31
43934;BME280;59081;42.706;23.306;2023-05-08T10:43:06;95210.47;;;21.91;45.94
43934;BME280;59081;42.706;23.306;2023-05-08T10:45:32;95270.13;;;22.31;45.86
43934;BME280;59081;42.706;23.306;2023-05-08T10:51:04;95247.41;;;22.23;45.63
43934;BME280;59081;42.706;23.306;2023-05-08T10:53:35;95267.25;;;22.58;45.02
43934;BME280;59081;42.706;23.306;2023-05-08T10:56:03;95244.03;;;22.64;44.74
43934;BME280;59081;42.706;23.306;2023-05-08T10:58:34;95324.16;;;23.50;43.61
43934;BME280;59081;42.706;23.306;2023-05-08T11:03:31;95232.00;;;23.32;42.48
43934;BME280;59081;42.706;23.306;2023-05-08T11:05:58;95306.81;;;24.23;41.38
43934;BME280;59081;42.706;23.306;2023-05-08T11:08:27;95258.19;;;23.92;40.69
43934;BME280;59081;42.706;23.306;2023-05-08T11:13:39;95216.50;;;24.21;39.01
43934;BME280;59081;42.706;23.306;2023-05-08T11:16:06;95271.28;;;24.74;37.37
43934;BME280;59081;42.706;23.306;2023-05-08T11:18:35;95196.94;;;23.74;38.68
43934;BME280;59081;42.706;23.306;2023-05-08T11:21:04;95220.16;;;24.10;38.75
43934;BME280;59081;42.706;23.306;2023-05-08T11:23:34;95163.50;;;24.01;38.24
43934;BME280;59081;42.706;23.306;2023-05-08T11:28:27;95132.88;;;23.67;38.23
43934;BME280;59081;42.706;23.306;2023-05-08T11:30:55;95219.78;;;24.98;36.81
43934;BME280;59081;42.706;23.306;2023-05-08T11:33:21;95172.53;;;24.85;35.93
43934;BME280;59081;42.706;23.306;2023-05-08T11:35:53;95160.16;;;25.13;35.85
43934;BME280;59081;42.706;23.306;2023-05-08T11:46:02;95160.13;;;25.31;35.94
43934;BME280;59081;42.706;23.306;2023-05-08T11:48:31;95128.84;;;25.67;34.33
43934;BME280;59081;42.706;23.306;2023-05-08T11:51:01;95180.22;;;26.37;33.89
43934;BME280;59081;42.706;23.306;2023-05-08T11:53:27;95110.16;;;26.09;33.48
43934;BME280;59081;42.706;23.306;2023-05-08T11:55:54;95135.56;;;26.22;33.92
43934;BME280;59081;42.706;23.306;2023-05-08T11:58:20;95167.00;;;26.32;33.38
43934;BME280;59081;42.706;23.306;2023-05-08T12:00:46;95144.00;;;26.09;33.72
43934;BME280;59081;42.706;23.306;2023-05-08T12:03:17;95139.31;;;25.98;34.19
43934;BME280;59081;42.706;23.306;2023-05-08T12:05:43;95112.03;;;25.43;34.29
43934;BME280;59081;42.706;23.306;2023-05-08T12:08:09;95181.47;;;26.10;34.69
43934;BME280;59081;42.706;23.306;2023-05-08T12:13:17;95151.44;;;26.39;33.52
43934;BME280;59081;42.706;23.306;2023-05-08T12:15:48;95181.56;;;26.49;33.40
43934;BME280;59081;42.706;23.306;2023-05-08T12:18:14;95115.03;;;26.09;33.27
43934;BME280;59081;42.706;23.306;2023-05-08T12:20:41;95131.34;;;26.42;33.06
43934;BME280;59081;42.706;23.306;2023-05-08T12:23:07;95149.22;;;26.84;32.21
43934;BME280;59081;42.706;23.306;2023-05-08T12:25:36;95146.28;;;27.16;31.82
43934;BME280;59081;42.706;23.306;2023-05-08T12:28:02;95148.28;;;27.63;31.94
43934;BME280;59081;42.706;23.306;2023-05-08T12:30:27;95149.88;;;27.37;30.75
43934;BME280;59081;42.706;23.306;2023-05-08T12:32:53;95151.41;;;25.67;33.76
43934;BME280;59081;42.706;23.306;2023-05-08T12:35:19;95078.44;;;24.38;35.43
43934;BME280;59081;42.706;23.306;2023-05-08T12:37:45;95123.88;;;24.23;36.29
43934;BME280;59081;42.706;23.306;2023-05-08T12:40:33;95212.50;;;24.41;37.36
43934;BME280;59081;42.706;23.306;2023-05-08T12:43:02;95065.66;;;23.64;37.71
43934;BME280;59081;42.706;23.306;2023-05-08T12:45:36;95165.09;;;23.90;37.33
43934;BME280;59081;42.706;23.306;2023-05-08T12:48:08;95181.59;;;24.35;37.09
43934;BME280;59081;42.706;23.306;2023-05-08T12:50:35;95158.81;;;23.79;37.04
43934;BME280;59081;42.706;23.306;2023-05-08T12:53:05;95106.31;;;23.63;36.95
43934;BME280;59081;42.706;23.306;2023-05-08T12:55:32;95020.53;;;23.20;36.63
43934;BME280;59081;42.706;23.306;2023-05-08T12:58:04;95192.28;;;24.61;36.52
43934;BME280;59081;42.706;23.306;2023-05-08T13:00:40;95103.09;;;24.50;35.39
43934;BME280;59081;42.706;23.306;2023-05-08T13:03:08;95114.59;;;24.90;34.20
43934;BME280;59081;42.706;23.306;2023-05-08T13:05:35;95157.31;;;24.94;38.56
43934;BME280;59081;42.706;23.306;2023-05-08T13:08:05;95199.13;;;24.90;41.26
43934;BME280;59081;42.706;23.306;2023-05-08T13:10:50;95209.16;;;23.82;44.52
43934;BME280;59081;42.706;23.306;2023-05-08T13:13:20;95136.28;;;23.19;45.40
43934;BME280;59081;42.706;23.306;2023-05-08T13:15:47;95207.31;;;23.19;46.23
43934;BME280;59081;42.706;23.306;2023-05-08T13:18:13;95128.56;;;22.20;47.44
43934;BME280;59081;42.706;23.306;2023-05-08T13:20:39;95143.66;;;22.01;48.48
43934;BME280;59081;42.706;23.306;2023-05-08T13:23:05;95114.13;;;21.66;49.29
43934;BME280;59081;42.706;23.306;2023-05-08T13:25:31;95110.59;;;21.38;49.45
43934;BME280;59081;42.706;23.306;2023-05-08T13:28:00;95192.38;;;21.75;49.87
43934;BME280;59081;42.706;23.306;2023-05-08T13:30:25;95125.31;;;20.99;51.11
43934;BME280;59081;42.706;23.306;2023-05-08T13:32:52;95115.84;;;20.69;52.02
43934;BME280;59081;42.706;23.306;2023-05-08T13:35:18;95147.69;;;20.77;52.55
43934;BME280;59081;42.706;23.306;2023-05-08T13:37:44;95235.78;;;20.98;53.54
43934;BME280;59081;42.706;23.306;2023-05-08T13:40:10;95164.13;;;20.53;53.35
43934;BME280;59081;42.706;23.306;2023-05-08T13:42:36;95046.28;;;19.69;54.40